Time;durP1;ratioP1;P1;durP2;ratioP2;P2;SDS_P1;SDS_P2;PMS_P1;PMS_P2;Temp;Humidity;BMP_temperature;BMP_pressure;BME280_temperature;BME280_humidity;BME280_pressure;Samples;Min_cycle;Max_cycle;Signal;HPM_P1;HPM_P2
2021/05/13 00:00:58;;;;;;;5.27;4.50;;;;;;;11.94;93.72;97994.84;4818877;29;103578;-88
2021/05/13 00:03:26;;;;;;;4.73;3.87;;;;;;;12.03;93.08;98006.44;4818716;29;106736;-88
2021/05/13 00:05:53;;;;;;;4.00;3.60;;;;;;;12.08;92.56;97998.91;4803247;29;106338;-88
2021/05/13 00:08:21;;;;;;;5.23;4.70;;;;;;;12.11;92.30;97996.84;4836017;29;102950;-86
2021/05/13 00:10:48;;;;;;;10.63;6.43;;;;;;;11.99;93.10;97995.25;4835695;29;103027;-89
2021/05/13 00:13:16;;;;;;;8.63;6.83;;;;;;;11.62;95.34;97989.69;4818835;29;105515;-88
2021/05/13 00:15:44;;;;;;;9.80;7.00;;;;;;;11.32;97.85;97992.38;4818977;29;103183;-89
2021/05/13 00:18:13;;;;;;;9.93;6.60;;;;;;;11.37;97.96;97991.97;4834467;29;102835;-86
2021/05/13 00:20:43;;;;;;;10.57;6.80;;;;;;;11.47;97.23;98000.78;4835205;29;102838;-87
2021/05/13 00:23:11;;;;;;;7.27;6.03;;;;;;;11.61;96.55;97987.19;4834537;29;103673;-88
2021/05/13 00:25:39;;;;;;;5.83;5.00;;;;;;;11.65;95.41;97985.94;4833209;29;103136;-89
2021/05/13 00:28:06;;;;;;;6.20;5.10;;;;;;;11.76;94.58;97977.13;4836004;29;103205;-87
2021/05/13 00:30:34;;;;;;;5.90;4.37;;;;;;;11.82;94.20;97977.41;4834738;29;103094;-89
2021/05/13 00:33:02;;;;;;;5.17;4.67;;;;;;;11.80;94.19;97968.75;4818443;29;106459;-87
2021/05/13 00:35:30;;;;;;;9.33;6.17;;;;;;;11.66;94.78;97971.75;4817705;29;103186;-88
2021/05/13 00:37:58;;;;;;;8.17;5.57;;;;;;;11.58;95.98;97966.31;4835499;29;102620;-86
2021/05/13 00:40:25;;;;;;;7.60;5.47;;;;;;;11.59;96.33;97965.34;4835635;29;102860;-89
2021/05/13 00:42:53;;;;;;;7.97;5.97;;;;;;;11.38;97.69;97961.91;4824360;29;103712;-87
2021/05/13 00:45:21;;;;;;;9.33;6.50;;;;;;;11.38;97.91;97962.75;4800375;29;105114;-89
2021/05/13 00:48:01;;;;;;;7.23;6.53;;;;;;;11.34;98.32;97961.34;4800417;29;102730;-90
2021/05/13 00:50:32;;;;;;;9.73;7.03;;;;;;;11.29;98.93;97971.47;4832354;29;102741;-85
2021/05/13 00:53:04;;;;;;;8.40;6.60;;;;;;;11.30;99.10;97974.97;4834599;29;103967;-89
2021/05/13 00:55:32;;;;;;;7.97;6.57;;;;;;;11.33;98.93;97972.06;4816614;29;106185;-88
2021/05/13 00:58:00;;;;;;;9.00;7.13;;;;;;;11.23;99.15;97977.28;4816808;29;102969;-89
2021/05/13 01:00:44;;;;;;;10.93;7.03;;;;;;;11.07;100.00;97982.22;4834737;29;102688;-85
2021/05/13 01:03:12;;;;;;;9.20;7.70;;;;;;;11.12;100.00;97987.09;4816034;29;103929;-89
2021/05/13 01:05:40;;;;;;;10.83;7.50;;;;;;;10.89;100.00;97981.97;4834416;29;103720;-88
2021/05/13 01:08:09;;;;;;;8.60;6.23;;;;;;;10.89;100.00;97989.91;4835616;29;102939;-89
2021/05/13 01:10:38;;;;;;;7.57;5.63;;;;;;;11.03;100.00;97988.75;4834696;29;103313;-89
2021/05/13 01:13:08;;;;;;;4.73;4.33;;;;;;;11.17;100.00;97988.38;4829155;29;104720;-88
2021/05/13 01:15:40;;;;;;;6.87;5.93;;;;;;;11.16;99.91;97988.53;4834856;29;103143;-85
2021/05/13 01:18:14;;;;;;;6.93;6.27;;;;;;;10.97;100.00;97994.56;4833118;29;103027;-89
2021/05/13 01:20:43;;;;;;;9.50;6.70;;;;;;;10.88;100.00;97977.69;4835071;29;102921;-88
2021/05/13 01:23:13;;;;;;;8.93;6.23;;;;;;;11.06;100.00;97986.66;4826961;29;104671;-89
2021/05/13 01:25:47;;;;;;;7.93;6.07;;;;;;;11.16;100.00;97988.53;4832494;29;104277;-88
2021/05/13 01:28:14;;;;;;;8.20;5.40;;;;;;;11.17;100.00;97984.94;4834636;29;102842;-87
2021/05/13 01:30:44;;;;;;;9.73;6.70;;;;;;;11.15;99.59;97985.03;4833037;29;102962;-86
2021/05/13 01:33:12;;;;;;;8.43;6.10;;;;;;;11.12;99.96;97987.09;4835690;29;103905;-89
2021/05/13 01:35:40;;;;;;;11.80;7.03;;;;;;;11.02;99.96;97977.34;4836139;29;103897;-85
2021/05/13 01:38:11;;;;;;;12.33;7.90;;;;;;;10.88;100.00;97979.47;4834406;29;102644;-89
2021/05/13 01:40:40;;;;;;;8.43;6.07;;;;;;;11.09;100.00;97982.13;4817535;29;103098;-90
2021/05/13 01:43:07;;;;;;;8.57;7.37;;;;;;;11.14;99.89;97972.81;4833974;29;103942;-87
2021/05/13 01:45:35;;;;;;;9.97;7.40;;;;;;;11.23;99.41;97973.84;4834612;29;102841;-87
2021/05/13 01:48:04;;;;;;;6.80;5.93;;;;;;;11.37;98.75;97966.34;4833839;29;103687;-84
2021/05/13 01:50:33;;;;;;;6.53;5.37;;;;;;;11.44;97.98;97966.69;4816994;29;103076;-86
2021/05/13 01:53:04;;;;;;;5.70;5.10;;;;;;;11.52;97.41;97957.09;4833134;29;103905;-84
2021/05/13 01:55:33;;;;;;;8.97;6.43;;;;;;;11.56;96.68;97952.38;4833016;29;104632;-89
2021/05/13 01:58:01;;;;;;;7.67;6.40;;;;;;;11.52;96.55;97958.91;4833586;29;103305;-89
2021/05/13 02:00:29;;;;;;;8.60;6.77;;;;;;;11.45;96.79;97952.50;4834318;29;103233;-88
2021/05/13 02:02:57;;;;;;;9.30;7.60;;;;;;;11.23;98.24;97942.09;4829438;29;103609;-89
2021/05/13 02:05:24;;;;;;;7.37;6.03;;;;;;;11.25;99.30;97946.28;4833191;29;103768;-90
2021/05/13 02:07:52;;;;;;;9.50;7.50;;;;;;;11.30;98.65;97944.06;4817578;29;102985;-88
2021/05/13 02:10:20;;;;;;;10.73;8.10;;;;;;;11.20;99.32;97931.78;4833970;29;103092;-89
2021/05/13 02:12:49;;;;;;;9.40;7.10;;;;;;;11.31;98.22;97932.50;4833797;29;104309;-89
2021/05/13 02:15:19;;;;;;;7.70;5.87;;;;;;;11.35;98.27;97926.00;4834080;29;103638;-89
2021/05/13 02:17:46;;;;;;;8.90;6.13;;;;;;;11.43;97.62;97933.25;4833017;29;103195;-86
2021/05/13 02:20:16;;;;;;;8.50;6.70;;;;;;;11.49;97.13;97927.44;4834293;29;102781;-89
2021/05/13 02:22:44;;;;;;;8.60;7.00;;;;;;;11.51;96.58;97926.31;4830435;29;104281;-88
2021/05/13 02:25:12;;;;;;;5.53;4.80;;;;;;;11.53;96.17;97927.03;4808709;29;105122;-89
2021/05/13 02:27:40;;;;;;;8.10;5.83;;;;;;;11.53;96.14;97926.19;4815616;29;102901;-89
2021/05/13 02:30:10;;;;;;;7.57;5.03;;;;;;;11.48;96.06;97918.66;4799788;29;102617;-85
2021/05/13 02:32:38;;;;;;;8.00;6.20;;;;;;;11.44;96.14;97924.34;4816863;29;103998;-89
2021/05/13 02:35:08;;;;;;;7.97;6.40;;;;;;;11.32;96.68;97920.13;4822090;29;103353;-89
2021/05/13 02:37:35;;;;;;;11.17;7.23;;;;;;;11.10;96.84;97920.31;4822779;29;103145;-89
2021/05/13 02:40:04;;;;;;;9.83;5.90;;;;;;;11.00;99.41;97931.69;4815160;29;102833;-88
2021/05/13 02:42:31;;;;;;;7.80;6.40;;;;;;;11.01;99.19;97922.81;4815300;29;103958;-89
2021/05/13 02:44:59;;;;;;;8.17;6.07;;;;;;;11.03;97.67;97926.13;4814441;29;104147;-90
2021/05/13 02:47:27;;;;;;;7.80;7.10;;;;;;;11.06;97.83;97919.75;4815713;29;102999;-88
2021/05/13 02:49:55;;;;;;;6.33;5.00;;;;;;;11.18;97.40;97923.13;4814596;29;103006;-87
2021/05/13 02:52:23;;;;;;;9.47;7.03;;;;;;;11.04;97.86;97922.53;4815180;29;104097;-89
2021/05/13 02:54:50;;;;;;;7.37;6.67;;;;;;;11.04;97.73;97919.06;4796511;29;104225;-89
2021/05/13 02:57:18;;;;;;;7.97;5.67;;;;;;;11.11;97.86;97922.84;4797563;29;102808;-87
2021/05/13 02:59:47;;;;;;;9.23;6.13;;;;;;;11.05;97.68;97926.03;4809578;29;103030;-89
2021/05/13 03:02:15;;;;;;;9.43;6.77;;;;;;;10.85;99.09;97921.59;4813920;29;105765;-88
2021/05/13 03:04:44;;;;;;;6.23;5.53;;;;;;;10.85;100.00;97924.25;4814597;29;104243;-89
2021/05/13 03:07:12;;;;;;;7.90;6.40;;;;;;;10.92;99.60;97923.59;4815026;29;102805;-89
2021/05/13 03:09:43;;;;;;;8.73;7.43;;;;;;;10.79;99.20;97927.41;4801918;29;103005;-85
2021/05/13 03:12:10;;;;;;;9.77;7.17;;;;;;;10.70;100.00;97920.25;4833235;29;103899;-88
2021/05/13 03:14:38;;;;;;;8.07;7.27;;;;;;;10.53;100.00;97921.69;4832940;29;104386;-88
2021/05/13 03:17:06;;;;;;;12.13;7.83;;;;;;;10.41;100.00;97920.09;4801773;29;102921;-89
2021/05/13 03:19:40;;;;;;;9.03;7.20;;;;;;;10.29;100.00;97927.22;4801561;29;102662;-89
2021/05/13 03:22:11;;;;;;;9.30;7.87;;;;;;;10.24;100.00;97924.16;4817466;29;104417;-86
2021/05/13 03:24:44;;;;;;;8.40;7.60;;;;;;;10.33;100.00;97920.72;4817066;29;109381;-89
2021/05/13 03:27:14;;;;;;;9.30;7.80;;;;;;;10.40;100.00;97926.31;4836158;29;103048;-89
2021/05/13 03:29:41;;;;;;;7.73;6.93;;;;;;;10.49;100.00;97920.28;4835834;29;102883;-89
2021/05/13 03:32:09;;;;;;;9.77;6.30;;;;;;;10.55;100.00;97921.56;4835783;29;103781;-89
2021/05/13 03:34:36;;;;;;;8.87;6.97;;;;;;;10.36;100.00;97924.91;4819122;29;106051;-88
2021/05/13 03:37:04;;;;;;;8.83;7.20;;;;;;;10.13;100.00;97923.34;4820058;29;103144;-89
2021/05/13 03:39:32;;;;;;;10.27;8.60;;;;;;;10.08;100.00;97922.84;4836386;29;103094;-89
2021/05/13 03:42:00;;;;;;;10.53;8.47;;;;;;;9.96;100.00;97921.22;4832846;29;103961;-88
2021/05/13 03:44:27;;;;;;;9.30;8.37;;;;;;;9.99;100.00;97919.19;4817773;29;104274;-88
2021/05/13 03:46:55;;;;;;;9.27;8.17;;;;;;;10.05;100.00;97916.00;4801364;29;103219;-86
2021/05/13 03:49:23;;;;;;;9.03;7.03;;;;;;;10.01;100.00;97924.31;4807864;29;102951;-85
2021/05/13 03:51:51;;;;;;;9.57;7.40;;;;;;;10.12;100.00;97911.91;4835666;29;103972;-85
2021/05/13 03:54:18;;;;;;;8.23;6.80;;;;;;;10.27;100.00;97915.13;4834866;29;103834;-89
2021/05/13 03:56:46;;;;;;;7.00;6.13;;;;;;;10.40;100.00;97915.75;4835862;29;102824;-87
2021/05/13 03:59:17;;;;;;;8.67;6.63;;;;;;;10.53;100.00;97916.41;4823505;29;102799;-88
2021/05/13 04:01:48;;;;;;;7.07;6.37;;;;;;;10.61;100.00;97907.84;4819137;29;104233;-88
2021/05/13 04:04:16;;;;;;;8.03;7.23;;;;;;;10.56;100.00;97905.59;4835767;29;105810;-88
2021/05/13 04:06:44;;;;;;;6.43;5.37;;;;;;;10.58;100.00;97903.66;4836393;29;103105;-86
2021/05/13 04:09:12;;;;;;;10.40;6.40;;;;;;;10.61;100.00;97905.22;4819365;29;102881;-87
2021/05/13 04:11:41;;;;;;;9.17;7.23;;;;;;;10.50;100.00;97911.38;4834940;29;103984;-88
2021/05/13 04:14:10;;;;;;;6.90;6.03;;;;;;;10.57;100.00;97901.97;4836007;29;103837;-86
2021/05/13 04:16:39;;;;;;;4.83;4.43;;;;;;;10.67;100.00;97908.16;4833683;29;102728;-89
2021/05/13 04:19:07;;;;;;;6.67;5.47;;;;;;;10.77;99.79;97903.78;4835610;29;102896;-87
2021/05/13 04:21:34;;;;;;;4.47;4.07;;;;;;;10.83;99.42;97900.63;4835054;29;103984;-87
2021/05/13 04:24:02;;;;;;;6.73;6.07;;;;;;;10.81;98.61;97899.03;4833637;29;103829;-85
2021/05/13 04:26:30;;;;;;;8.50;7.20;;;;;;;10.57;99.30;97901.16;4834803;29;103334;-89
2021/05/13 04:28:59;;;;;;;9.77;6.90;;;;;;;10.43;100.00;97905.78;4817867;29;102915;-89
2021/05/13 04:31:27;;;;;;;8.07;7.37;;;;;;;10.18;100.00;97900.88;4835032;29;104223;-88
2021/05/13 04:33:55;;;;;;;7.47;6.77;;;;;;;10.16;100.00;97912.53;4824585;29;103765;-87
2021/05/13 04:36:23;;;;;;;11.30;7.63;;;;;;;10.26;100.00;97901.09;4836091;29;103021;-89
2021/05/13 04:38:50;;;;;;;10.30;7.53;;;;;;;10.08;100.00;97904.34;4818096;29;103199;-84
2021/05/13 04:41:18;;;;;;;8.43;6.70;;;;;;;10.13;100.00;97904.88;4834330;29;103055;-83
2021/05/13 04:43:46;;;;;;;9.63;7.60;;;;;;;10.00;100.00;97901.53;4823495;29;103948;-84
2021/05/13 04:46:15;;;;;;;8.07;7.27;;;;;;;9.76;100.00;97894.69;4834816;29;102900;-84
2021/05/13 04:49:15;;;;;;;12.13;8.20;;;;;;;9.74;100.00;97890.50;4817512;29;103316;-84
2021/05/13 04:51:45;;;;;;;9.77;7.13;;;;;;;9.82;100.00;97902.06;4815141;29;103150;-84
2021/05/13 04:54:15;;;;;;;9.37;7.80;;;;;;;9.77;100.00;97898.13;4835472;28;103639;-84
2021/05/13 04:56:42;;;;;;;10.47;6.17;;;;;;;10.01;100.00;97896.13;4852163;28;102911;-83
2021/05/13 04:59:11;;;;;;;6.93;5.93;;;;;;;10.21;100.00;97897.16;4850799;29;102897;-84
2021/05/13 05:01:39;;;;;;;10.33;7.50;;;;;;;10.18;100.00;97892.13;4855838;28;103754;-84
2021/05/13 05:04:07;;;;;;;9.40;7.67;;;;;;;10.20;100.00;97892.81;4852769;29;105237;-84
2021/05/13 05:06:35;;;;;;;7.63;6.80;;;;;;;10.48;100.00;97892.19;4853355;29;102969;-84
2021/05/13 05:09:05;;;;;;;7.27;6.33;;;;;;;10.62;100.00;97885.72;4853440;29;102581;-84
2021/05/13 05:11:33;;;;;;;7.97;5.53;;;;;;;10.71;100.00;97893.72;4836243;29;103884;-84
2021/05/13 05:14:02;;;;;;;4.63;4.10;;;;;;;11.00;100.00;97896.50;4835209;29;105426;-84
2021/05/13 05:16:29;;;;;;;4.60;4.20;;;;;;;11.24;99.79;97893.53;4848828;28;102766;-83
2021/05/13 05:18:57;;;;;;;5.30;4.80;;;;;;;11.32;99.35;97888.41;4846578;29;102928;-83
2021/05/13 05:21:25;;;;;;;7.80;7.10;;;;;;;11.36;97.98;97879.25;4853452;29;108248;-84
2021/05/13 05:23:53;;;;;;;8.93;7.97;;;;;;;11.32;97.86;97875.19;4852580;29;104149;-85
2021/05/13 05:26:21;;;;;;;7.33;6.27;;;;;;;11.43;97.91;97883.00;4849961;28;103025;-77
2021/05/13 05:28:48;;;;;;;7.80;6.50;;;;;;;11.65;96.94;97880.13;4859773;28;102670;-83
2021/05/13 05:31:16;;;;;;;7.87;5.80;;;;;;;11.72;96.19;97881.28;4845827;28;104504;-74
2021/05/13 05:33:43;;;;;;;5.40;4.90;;;;;;;11.60;95.77;97877.91;4859682;28;103899;-80
2021/05/13 05:36:11;;;;;;;7.77;6.73;;;;;;;11.49;96.14;97875.38;4836825;29;106128;-78
2021/05/13 05:38:39;;;;;;;5.53;5.03;;;;;;;11.51;96.31;97875.22;4865968;28;103387;-80
2021/05/13 05:41:07;;;;;;;5.33;4.83;;;;;;;11.62;95.79;97877.78;4870984;28;103560;-83
2021/05/13 05:43:34;;;;;;;7.30;5.30;;;;;;;11.67;95.00;97877.34;4856369;28;103813;-84
2021/05/13 05:46:02;;;;;;;6.03;5.40;;;;;;;11.72;95.05;97876.00;4851833;29;102476;-87
2021/05/13 05:48:31;;;;;;;8.63;5.33;;;;;;;11.94;94.14;97875.72;4835720;29;103107;-79
2021/05/13 05:50:59;;;;;;;6.97;6.27;;;;;;;12.06;93.16;97882.56;4868752;28;103992;-80
2021/05/13 05:53:29;;;;;;;6.03;5.40;;;;;;;12.09;93.12;97871.69;4863810;28;103272;-84
2021/05/13 05:55:57;;;;;;;5.00;4.30;;;;;;;12.18;92.29;97878.78;4852046;29;102635;-89
2021/05/13 05:58:25;;;;;;;6.73;4.43;;;;;;;12.28;92.12;97862.91;4852051;28;102855;-83
2021/05/13 06:00:53;;;;;;;3.70;3.40;;;;;;;12.37;91.99;97867.34;4848589;28;103899;-85
2021/05/13 06:03:20;;;;;;;6.27;5.63;;;;;;;12.47;90.77;97873.47;4852499;28;106639;-85
2021/05/13 06:05:49;;;;;;;8.57;5.80;;;;;;;12.52;90.08;97870.41;4852919;29;103091;-84
2021/05/13 06:08:16;;;;;;;5.97;3.80;;;;;;;12.58;89.50;97869.81;4820533;29;102934;-82
2021/05/13 06:10:44;;;;;;;6.20;5.10;;;;;;;12.68;89.36;97870.63;4852135;29;103895;-81
2021/05/13 06:13:13;;;;;;;5.70;5.20;;;;;;;12.67;88.99;97869.78;4850905;29;104382;-84
2021/05/13 06:15:40;;;;;;;4.67;3.77;;;;;;;12.80;87.33;97858.84;4848994;29;103079;-77
2021/05/13 06:18:08;;;;;;;4.60;3.93;;;;;;;12.95;87.03;97860.06;4833387;29;103115;-82
2021/05/13 06:20:36;;;;;;;5.13;4.10;;;;;;;13.04;84.61;97863.66;4847934;29;108744;-82
2021/05/13 06:23:04;;;;;;;4.97;4.40;;;;;;;13.17;83.66;97865.03;4847352;28;103991;-82
2021/05/13 06:25:32;;;;;;;8.50;5.13;;;;;;;13.08;85.84;97870.38;4848162;28;103320;-81
2021/05/13 06:28:00;;;;;;;5.37;4.87;;;;;;;13.21;86.16;97863.75;4848565;29;103023;-81
2021/05/13 06:30:28;;;;;;;7.67;5.07;;;;;;;13.27;85.85;97870.28;4847581;29;103374;-81
2021/05/13 06:32:56;;;;;;;4.50;3.83;;;;;;;13.40;84.61;97861.97;4848329;28;103352;-84
2021/05/13 06:35:23;;;;;;;8.50;5.03;;;;;;;13.46;84.95;97859.56;4848896;28;102943;-82
2021/05/13 06:37:51;;;;;;;5.53;4.50;;;;;;;13.72;84.30;97863.19;4850013;29;102751;-82
2021/05/13 06:40:19;;;;;;;5.47;4.93;;;;;;;13.56;83.27;97863.00;4849046;29;103219;-73
2021/05/13 06:42:47;;;;;;;6.90;4.37;;;;;;;13.19;84.31;97868.34;4847206;28;104233;-74
2021/05/13 06:45:14;;;;;;;4.40;3.80;;;;;;;13.80;83.86;97865.06;4830138;29;102938;-74
2021/05/13 06:47:43;;;;;;;3.03;2.77;;;;;;;14.14;81.19;97862.56;4831178;29;103091;-75
2021/05/13 06:50:12;;;;;;;7.27;4.50;;;;;;;13.93;80.41;97861.06;4845228;29;104083;-78
2021/05/13 06:52:40;;;;;;;10.87;4.17;;;;;;;14.06;80.74;97866.00;4846687;29;104039;-80
2021/05/13 06:55:08;;;;;;;6.00;3.80;;;;;;;14.30;80.19;97857.38;4846900;29;103043;-79
2021/05/13 06:57:36;;;;;;;4.30;3.13;;;;;;;14.51;79.86;97872.03;4846645;29;103448;-78
2021/05/13 07:00:05;;;;;;;5.93;3.87;;;;;;;14.41;78.29;97862.47;4844007;29;104300;-76
2021/05/13 07:02:34;;;;;;;3.50;3.00;;;;;;;14.56;77.37;97862.75;4846108;28;103653;-75
2021/05/13 07:05:02;;;;;;;5.00;3.50;;;;;;;14.89;76.17;97859.31;4847461;29;103371;-75
2021/05/13 07:07:30;;;;;;;3.30;3.00;;;;;;;14.78;74.25;97871.06;4830948;29;103114;-75
2021/05/13 07:09:58;;;;;;;5.47;3.23;;;;;;;14.61;73.21;97866.63;4846478;29;104857;-75
2021/05/13 07:12:25;;;;;;;5.53;4.13;;;;;;;14.90;73.18;97859.19;4845743;29;106374;-75
2021/05/13 07:14:53;;;;;;;6.33;3.60;;;;;;;15.04;73.42;97855.91;4845725;29;102712;-77
2021/05/13 07:17:21;;;;;;;3.07;2.50;;;;;;;15.07;70.54;97852.09;4847469;29;103011;-76
2021/05/13 07:19:49;;;;;;;4.57;3.43;;;;;;;14.94;71.98;97846.38;4827769;29;105176;-77
2021/05/13 07:22:18;;;;;;;5.10;2.77;;;;;;;15.44;71.29;97849.91;4846174;29;103905;-78
2021/05/13 07:24:48;;;;;;;4.87;2.30;;;;;;;16.02;70.49;97854.41;4844642;29;103001;-77
2021/05/13 07:27:16;;;;;;;3.73;2.80;;;;;;;16.20;69.63;97847.91;4839258;28;103615;-75
2021/05/13 07:29:44;;;;;;;5.17;2.70;;;;;;;16.08;68.21;97849.22;4844055;28;103993;-76
2021/05/13 08:09:22;;;;;;;4.47;2.10;;;;;;;17.16;56.97;97831.94;5148127;23;103460;-79
2021/05/13 08:11:49;;;;;;;5.25;2.83;;;;;;;16.78;60.27;97830.91;4853763;28;102675;-78
2021/05/13 08:14:17;;;;;;;6.13;2.20;;;;;;;17.17;58.06;97830.94;4874859;28;102681;-77
2021/05/13 08:16:44;;;;;;;3.42;2.10;;;;;;;17.83;56.34;97833.13;4874256;28;103436;-78
2021/05/13 08:19:12;;;;;;;2.20;1.92;;;;;;;18.42;56.19;97828.81;4864517;28;103149;-79
2021/05/13 08:21:40;;;;;;;3.28;2.20;;;;;;;19.44;55.27;97820.91;4849053;28;102940;-79
2021/05/13 08:24:07;;;;;;;2.85;1.67;;;;;;;19.04;55.78;97819.53;4866058;28;102416;-79
2021/05/13 08:26:36;;;;;;;3.13;1.80;;;;;;;19.69;52.12;97826.75;4865773;28;103207;-79
2021/05/13 08:29:04;;;;;;;3.13;2.22;;;;;;;19.20;53.06;97821.16;4860121;28;103555;-77
2021/05/13 08:31:31;;;;;;;4.43;2.20;;;;;;;19.25;53.28;97813.44;4862756;28;102528;-77
2021/05/13 08:33:59;;;;;;;3.10;1.88;;;;;;;19.08;53.33;97820.84;4867073;28;102974;-79
2021/05/13 08:36:27;;;;;;;3.95;1.73;;;;;;;19.55;56.11;97820.44;4868178;28;102767;-79
2021/05/13 08:38:54;;;;;;;3.60;1.60;;;;;;;19.96;50.74;97814.47;4867977;28;103134;-79
2021/05/13 08:41:22;;;;;;;2.58;1.60;;;;;;;20.53;52.09;97807.19;4859461;28;102565;-80
2021/05/13 08:43:51;;;;;;;4.65;2.13;;;;;;;20.10;51.43;97808.22;4867454;28;102558;-79
2021/05/13 08:46:20;;;;;;;5.93;2.20;;;;;;;20.55;50.39;97801.63;4871315;28;103288;-77
2021/05/13 08:48:49;;;;;;;4.65;2.10;;;;;;;20.53;52.26;97804.50;4858109;28;103591;-78
2021/05/13 08:51:18;;;;;;;2.60;1.83;;;;;;;21.66;50.82;97793.38;4863123;28;103112;-78
2021/05/13 08:53:50;;;;;;;2.13;1.58;;;;;;;21.86;49.13;97794.25;4864613;28;103679;-78
2021/05/13 08:56:18;;;;;;;3.08;1.95;;;;;;;22.22;48.51;97794.75;4864059;28;103230;-79
2021/05/13 08:58:45;;;;;;;3.70;1.83;;;;;;;22.19;49.88;97795.16;4866128;28;103541;-79
2021/05/13 09:01:15;;;;;;;5.68;2.10;;;;;;;19.91;49.16;97801.66;4848220;28;103173;-79
2021/05/13 09:03:44;;;;;;;4.82;2.05;;;;;;;20.13;49.91;97792.56;4846474;28;102668;-80
2021/05/13 09:06:22;;;;;;;4.32;2.00;;;;;;;20.24;50.72;97791.22;4845401;28;105356;-79
2021/05/13 09:08:50;;;;;;;2.38;1.42;;;;;;;21.07;50.98;97777.84;4838951;28;106726;-81
2021/05/13 09:11:18;;;;;;;2.63;1.40;;;;;;;21.01;48.12;97781.28;4841820;28;102858;-80
2021/05/13 09:13:58;;;;;;;4.10;1.50;;;;;;;20.17;48.50;97782.31;4853323;28;103453;-79
2021/05/13 09:16:30;;;;;;;2.40;1.40;;;;;;;21.30;48.56;97778.38;4845798;28;106614;-80
2021/05/13 09:19:18;;;;;;;3.13;1.58;;;;;;;20.65;48.45;97776.13;4851088;28;104438;-80
2021/05/13 09:21:58;;;;;;;1.30;1.20;;;;;;;21.77;46.84;97771.28;4857979;28;103014;-80
2021/05/13 09:24:48;;;;;;;3.75;1.15;;;;;;;21.60;46.48;97772.69;4856157;28;103334;-80
2021/05/13 09:27:21;;;;;;;2.83;1.60;;;;;;;19.47;46.89;97776.84;4830754;28;103085;-80
2021/05/13 09:30:14;;;;;;;1.40;1.08;;;;;;;19.72;49.89;97769.28;4853388;28;103411;-78
2021/05/13 09:32:47;;;;;;;2.95;1.45;;;;;;;19.33;48.63;97772.31;4851808;28;103532;-79
2021/05/13 09:35:23;;;;;;;1.83;1.25;;;;;;;19.73;49.87;97765.59;4854516;28;102434;-79
2021/05/13 09:37:56;;;;;;;1.63;1.20;;;;;;;18.98;48.42;97763.22;4851510;28;106093;-82
2021/05/13 09:40:35;;;;;;;1.80;1.20;;;;;;;18.95;51.36;97780.47;4847509;28;103335;-78
2021/05/13 10:08:25;;;;;;;3.60;1.30;;;;;;;19.55;49.77;97755.31;4915368;23;105263;-75
2021/05/13 10:10:55;;;;;;;2.17;1.05;;;;;;;19.64;49.62;97751.50;4870210;28;105742;-75
2021/05/13 10:13:28;;;;;;;2.90;1.67;;;;;;;18.87;48.63;97748.47;4877574;28;103485;-78
2021/05/13 10:15:56;;;;;;;2.25;1.13;;;;;;;19.49;49.06;97748.00;4882497;28;103060;-74
2021/05/13 10:18:27;;;;;;;2.50;1.30;;;;;;;18.48;51.32;97753.25;4872937;28;107671;-81
2021/05/13 10:20:58;;;;;;;2.45;1.38;;;;;;;18.55;50.96;97754.22;4883759;28;105253;-82
2021/05/13 10:23:28;;;;;;;2.38;1.70;;;;;;;18.60;51.48;97749.13;4886276;28;103154;-84
2021/05/13 10:25:56;;;;;;;4.00;1.50;;;;;;;19.67;49.86;97751.13;4884951;28;102691;-83
2021/05/13 10:28:29;;;;;;;2.50;1.25;;;;;;;19.77;49.48;97753.47;4875134;28;104267;-85
2021/05/13 10:31:07;;;;;;;25.05;16.95;;;;;;;20.12;49.09;97740.00;4883984;28;103099;-84
2021/05/13 10:33:48;;;;;;;7.97;5.25;;;;;;;20.27;48.24;97736.44;4885486;28;103098;-83
2021/05/13 10:36:21;;;;;;;4.20;2.45;;;;;;;19.92;48.95;97739.00;4874712;28;103171;-83
2021/05/13 10:38:55;;;;;;;3.75;1.90;;;;;;;19.59;49.34;97743.19;4881914;28;104530;-79
2021/05/13 10:41:34;;;;;;;2.90;1.33;;;;;;;19.21;51.04;97745.19;4885926;28;104386;-81
2021/05/13 10:44:36;;;;;;;5.80;2.97;;;;;;;19.47;50.56;97740.19;4869220;28;102841;-82
2021/05/13 10:47:06;;;;;;;9.27;6.90;;;;;;;19.39;49.22;97744.81;4895078;28;103205;-79
2021/05/13 10:49:48;;;;;;;4.28;1.42;;;;;;;18.93;49.11;97742.38;4885757;28;103850;-80
2021/05/13 10:52:33;;;;;;;2.83;1.73;;;;;;;19.47;49.67;97734.00;4887443;28;105915;-82
2021/05/13 10:55:05;;;;;;;4.65;1.85;;;;;;;19.31;50.28;97739.56;4887369;28;102605;-83
2021/05/13 10:57:50;;;;;;;2.78;1.73;;;;;;;20.00;50.49;97729.97;4887230;28;103148;-83
2021/05/13 11:00:28;;;;;;;4.63;2.30;;;;;;;19.92;49.61;97733.63;4885871;28;105097;-83
2021/05/13 11:02:56;;;;;;;3.78;2.03;;;;;;;19.98;50.57;97729.34;4886459;28;104150;-85
2021/05/13 11:05:45;;;;;;;4.88;1.52;;;;;;;20.16;50.09;97719.81;4869232;28;104162;-82
2021/05/13 11:08:29;;;;;;;2.33;1.33;;;;;;;20.29;51.30;97723.66;4881642;28;103757;-82
2021/05/13 11:10:59;;;;;;;2.85;1.52;;;;;;;20.13;48.68;97730.06;4880221;28;103834;-85
2021/05/13 11:13:45;;;;;;;4.70;1.30;;;;;;;20.19;49.36;97729.31;4890419;28;103140;-86
2021/05/13 11:16:44;;;;;;;2.88;1.50;;;;;;;20.21;50.02;97728.09;4854780;28;103310;-88
2021/05/13 11:19:21;;;;;;;2.15;1.35;;;;;;;19.87;51.72;97735.22;4885270;28;103074;-85
2021/05/13 11:21:56;;;;;;;4.53;1.60;;;;;;;19.57;52.25;97739.84;4884804;28;104269;-81
2021/05/13 11:24:30;;;;;;;3.42;1.23;;;;;;;19.67;51.74;97737.72;4886367;28;103680;-86
2021/05/13 11:26:58;;;;;;;4.45;1.33;;;;;;;19.49;52.92;97748.00;4868401;28;103025;-81
2021/05/13 11:29:26;;;;;;;2.97;1.38;;;;;;;19.09;53.95;97744.84;4870980;28;103796;-81
2021/05/13 11:31:54;;;;;;;2.75;1.23;;;;;;;19.13;53.93;97736.44;4885014;28;104135;-83
2021/05/13 11:34:22;;;;;;;4.05;1.67;;;;;;;18.94;52.87;97733.34;4885915;28;104127;-85
2021/05/13 11:36:49;;;;;;;3.40;1.33;;;;;;;18.73;53.27;97735.09;4883126;28;102954;-79
2021/05/13 11:39:18;;;;;;;4.03;1.40;;;;;;;18.64;54.54;97737.03;4879331;28;103437;-82
2021/05/13 11:41:49;;;;;;;2.50;1.10;;;;;;;19.23;52.98;97735.13;4886670;28;103220;-80
2021/05/13 11:44:21;;;;;;;1.48;1.02;;;;;;;18.65;50.30;97733.34;4879668;28;105496;-84
2021/05/13 11:46:51;;;;;;;2.10;1.00;;;;;;;18.66;50.63;97723.47;4890865;28;103134;-83
2021/05/13 11:49:19;;;;;;;1.25;0.90;;;;;;;18.71;51.70;97726.44;4892202;28;103099;-82
2021/05/13 11:51:47;;;;;;;4.55;1.23;;;;;;;19.00;50.67;97729.91;4889001;28;103272;-83
2021/05/13 11:54:15;;;;;;;0.70;0.70;;;;;;;18.95;49.96;97729.63;4873542;28;106434;-83
2021/05/13 11:56:43;;;;;;;2.35;0.98;;;;;;;18.94;51.73;97728.00;4889455;28;103145;-81
2021/05/13 11:59:11;;;;;;;1.95;0.73;;;;;;;19.36;50.63;97726.44;4890694;28;102978;-82
2021/05/13 12:01:41;;;;;;;2.20;1.20;;;;;;;19.27;50.21;97732.91;4889043;28;104346;-81
2021/05/13 12:04:10;;;;;;;1.42;0.75;;;;;;;19.21;48.33;97728.31;4886279;28;103756;-82
2021/05/13 12:06:49;;;;;;;2.30;0.80;;;;;;;19.36;49.10;97726.44;4888081;28;102702;-79
2021/05/13 12:09:19;;;;;;;1.48;0.85;;;;;;;20.12;48.02;97728.44;4883508;28;103087;-84
2021/05/13 12:11:47;;;;;;;2.95;0.80;;;;;;;19.40;49.65;97735.75;4887104;28;103467;-83
2021/05/13 12:14:17;;;;;;;3.00;1.17;;;;;;;19.90;48.60;97724.13;4887519;28;103277;-82
2021/05/13 12:16:53;;;;;;;1.15;0.93;;;;;;;19.58;50.07;97728.13;4881980;28;102950;-82
2021/05/13 12:19:22;;;;;;;2.25;0.90;;;;;;;19.56;48.95;97727.50;4881890;28;103149;-81
2021/05/13 12:21:53;;;;;;;2.80;1.08;;;;;;;19.82;48.19;97719.69;4886953;28;104770;-82
2021/05/13 12:24:27;;;;;;;3.20;0.80;;;;;;;19.82;47.57;97721.59;4902179;28;106609;-83
2021/05/13 12:26:55;;;;;;;2.67;0.82;;;;;;;20.59;46.47;97714.34;4888322;28;103073;-81
2021/05/13 12:29:24;;;;;;;1.80;0.98;;;;;;;20.51;47.52;97711.81;4887181;28;102944;-79
2021/05/13 12:31:52;;;;;;;1.38;0.82;;;;;;;20.63;47.84;97719.13;4881786;28;104467;-77
2021/05/13 12:34:35;;;;;;;2.33;1.00;;;;;;;20.32;47.19;97717.91;4879947;28;103622;-77
2021/05/13 12:37:03;;;;;;;2.17;1.10;;;;;;;20.21;48.02;97720.03;4871908;28;103382;-78
2021/05/13 12:39:36;;;;;;;2.03;1.08;;;;;;;20.20;48.05;97723.75;4877033;28;103091;-80